sensor_id;sensor_type;location;lat;lon;timestamp;temperature;humidity
44851;DHT22;30583;48.714;9.386;2022-12-29T00:01:29;5.50;80.60
44851;DHT22;30583;48.714;9.386;2022-12-29T00:03:54;5.50;81.00
44851;DHT22;30583;48.714;9.386;2022-12-29T00:06:20;5.30;82.10
44851;DHT22;30583;48.714;9.386;2022-12-29T00:08:45;5.60;81.40
44851;DHT22;30583;48.714;9.386;2022-12-29T00:11:16;5.50;81.20
44851;DHT22;30583;48.714;9.386;2022-12-29T00:13:42;5.70;80.80
44851;DHT22;30583;48.714;9.386;2022-12-29T00:16:28;5.70;80.90
44851;DHT22;30583;48.714;9.386;2022-12-29T00:18:54;5.70;80.90
44851;DHT22;30583;48.714;9.386;2022-12-29T00:21:21;5.70;81.00
44851;DHT22;30583;48.714;9.386;2022-12-29T00:24:08;5.70;80.70
44851;DHT22;30583;48.714;9.386;2022-12-29T00:26:40;5.60;80.70
44851;DHT22;30583;48.714;9.386;2022-12-29T00:29:24;5.60;81.50
44851;DHT22;30583;48.714;9.386;2022-12-29T00:32:10;5.70;81.10
44851;DHT22;30583;48.714;9.386;2022-12-29T00:34:54;5.80;80.80
44851;DHT22;30583;48.714;9.386;2022-12-29T00:37:43;5.70;81.00
44851;DHT22;30583;48.714;9.386;2022-12-29T00:40:27;5.80;80.90
44851;DHT22;30583;48.714;9.386;2022-12-29T00:43:11;5.70;81.20
44851;DHT22;30583;48.714;9.386;2022-12-29T00:45:55;5.90;80.80
44851;DHT22;30583;48.714;9.386;2022-12-29T00:48:21;5.60;81.20
44851;DHT22;30583;48.714;9.386;2022-12-29T00:51:06;5.60;81.60
44851;DHT22;30583;48.714;9.386;2022-12-29T00:53:33;5.60;81.70
44851;DHT22;30583;48.714;9.386;2022-12-29T00:55:59;5.70;81.40
44851;DHT22;30583;48.714;9.386;2022-12-29T00:58:27;5.90;81.10
44851;DHT22;30583;48.714;9.386;2022-12-29T01:01:01;5.70;81.30
44851;DHT22;30583;48.714;9.386;2022-12-29T01:03:27;5.80;81.50
44851;DHT22;30583;48.714;9.386;2022-12-29T01:05:53;5.90;81.40
44851;DHT22;30583;48.714;9.386;2022-12-29T01:08:18;5.90;81.30
44851;DHT22;30583;48.714;9.386;2022-12-29T01:10:44;6.00;81.20
44851;DHT22;30583;48.714;9.386;2022-12-29T01:13:09;5.70;81.40
44851;DHT22;30583;48.714;9.386;2022-12-29T01:15:35;5.70;81.40
44851;DHT22;30583;48.714;9.386;2022-12-29T01:18:00;5.70;82.10
44851;DHT22;30583;48.714;9.386;2022-12-29T01:20:26;5.90;81.50
44851;DHT22;30583;48.714;9.386;2022-12-29T01:22:53;6.00;81.10
44851;DHT22;30583;48.714;9.386;2022-12-29T01:25:19;6.10;80.90
44851;DHT22;30583;48.714;9.386;2022-12-29T01:27:45;6.10;81.10
44851;DHT22;30583;48.714;9.386;2022-12-29T01:30:11;6.00;81.20
44851;DHT22;30583;48.714;9.386;2022-12-29T01:32:37;6.10;81.20
44851;DHT22;30583;48.714;9.386;2022-12-29T01:35:03;6.00;81.20
44851;DHT22;30583;48.714;9.386;2022-12-29T01:37:28;6.00;81.30
44851;DHT22;30583;48.714;9.386;2022-12-29T01:39:54;6.00;81.20
44851;DHT22;30583;48.714;9.386;2022-12-29T01:42:23;5.80;81.40
44851;DHT22;30583;48.714;9.386;2022-12-29T01:45:00;5.80;82.50
44851;DHT22;30583;48.714;9.386;2022-12-29T01:47:34;6.00;81.90
44851;DHT22;30583;48.714;9.386;2022-12-29T01:50:24;6.00;81.80
44851;DHT22;30583;48.714;9.386;2022-12-29T01:53:01;6.10;81.80
44851;DHT22;30583;48.714;9.386;2022-12-29T01:55:34;6.10;81.60
44851;DHT22;30583;48.714;9.386;2022-12-29T01:58:02;6.10;81.70
44851;DHT22;30583;48.714;9.386;2022-12-29T02:00:27;6.00;82.00
44851;DHT22;30583;48.714;9.386;2022-12-29T02:02:54;6.20;81.70
44851;DHT22;30583;48.714;9.386;2022-12-29T02:05:35;6.20;81.60
44851;DHT22;30583;48.714;9.386;2022-12-29T02:08:03;6.20;81.60
44851;DHT22;30583;48.714;9.386;2022-12-29T02:10:31;6.20;81.60
44851;DHT22;30583;48.714;9.386;2022-12-29T02:12:58;6.10;82.20
44851;DHT22;30583;48.714;9.386;2022-12-29T02:18:25;6.20;82.00
44851;DHT22;30583;48.714;9.386;2022-12-29T02:21:19;6.20;81.90
44851;DHT22;30583;48.714;9.386;2022-12-29T02:27:21;6.20;81.90
44851;DHT22;30583;48.714;9.386;2022-12-29T02:32:49;6.20;81.80
44851;DHT22;30583;48.714;9.386;2022-12-29T02:39:04;6.10;82.10
44851;DHT22;30583;48.714;9.386;2022-12-29T02:41:38;6.10;82.10
44851;DHT22;30583;48.714;9.386;2022-12-29T02:44:15;6.10;82.50
44851;DHT22;30583;48.714;9.386;2022-12-29T02:46:54;6.20;81.90
44851;DHT22;30583;48.714;9.386;2022-12-29T02:49:38;6.40;81.80
44851;DHT22;30583;48.714;9.386;2022-12-29T02:52:11;6.40;81.60
44851;DHT22;30583;48.714;9.386;2022-12-29T02:54:40;6.10;81.80
44851;DHT22;30583;48.714;9.386;2022-12-29T02:57:30;6.20;82.10
44851;DHT22;30583;48.714;9.386;2022-12-29T03:00:12;6.20;82.20
44851;DHT22;30583;48.714;9.386;2022-12-29T03:03:05;6.40;81.90
44851;DHT22;30583;48.714;9.386;2022-12-29T03:06:01;6.30;81.80
44851;DHT22;30583;48.714;9.386;2022-12-29T03:09:19;6.20;82.30
44851;DHT22;30583;48.714;9.386;2022-12-29T03:11:27;6.30;82.00
44851;DHT22;30583;48.714;9.386;2022-12-29T03:14:17;6.20;82.20
44851;DHT22;30583;48.714;9.386;2022-12-29T03:17:10;6.30;82.00
44851;DHT22;30583;48.714;9.386;2022-12-29T03:19:44;6.20;82.20
44851;DHT22;30583;48.714;9.386;2022-12-29T03:22:18;6.30;82.00
44851;DHT22;30583;48.714;9.386;2022-12-29T03:25:04;6.20;82.30
44851;DHT22;30583;48.714;9.386;2022-12-29T03:27:52;6.20;82.70
44851;DHT22;30583;48.714;9.386;2022-12-29T03:30:18;6.20;82.90
44851;DHT22;30583;48.714;9.386;2022-12-29T03:32:53;6.40;82.00
44851;DHT22;30583;48.714;9.386;2022-12-29T03:35:25;7.20;79.20
44851;DHT22;30583;48.714;9.386;2022-12-29T03:38:23;7.50;77.10
44851;DHT22;30583;48.714;9.386;2022-12-29T03:40:56;8.50;73.20
44851;DHT22;30583;48.714;9.386;2022-12-29T03:43:23;8.50;72.70
44851;DHT22;30583;48.714;9.386;2022-12-29T03:45:48;9.20;69.40
44851;DHT22;30583;48.714;9.386;2022-12-29T03:48:14;9.60;67.90
44851;DHT22;30583;48.714;9.386;2022-12-29T03:50:40;9.60;67.60
44851;DHT22;30583;48.714;9.386;2022-12-29T03:53:05;9.80;66.60
44851;DHT22;30583;48.714;9.386;2022-12-29T03:55:31;10.10;65.60
44851;DHT22;30583;48.714;9.386;2022-12-29T03:57:57;10.20;65.10
44851;DHT22;30583;48.714;9.386;2022-12-29T04:00:22;10.30;64.40
44851;DHT22;30583;48.714;9.386;2022-12-29T04:02:48;10.50;63.40
44851;DHT22;30583;48.714;9.386;2022-12-29T04:05:13;10.50;63.80
44851;DHT22;30583;48.714;9.386;2022-12-29T04:07:39;10.40;64.10
44851;DHT22;30583;48.714;9.386;2022-12-29T04:10:05;10.40;64.20
44851;DHT22;30583;48.714;9.386;2022-12-29T04:12:30;10.80;62.50
44851;DHT22;30583;48.714;9.386;2022-12-29T04:14:56;10.60;63.60
44851;DHT22;30583;48.714;9.386;2022-12-29T04:17:21;10.40;63.90
44851;DHT22;30583;48.714;9.386;2022-12-29T04:19:48;10.80;62.20
44851;DHT22;30583;48.714;9.386;2022-12-29T04:22:14;10.50;63.40
44851;DHT22;30583;48.714;9.386;2022-12-29T04:24:39;10.60;63.10
44851;DHT22;30583;48.714;9.386;2022-12-29T04:27:05;10.50;63.40
44851;DHT22;30583;48.714;9.386;2022-12-29T04:29:30;10.20;64.20
44851;DHT22;30583;48.714;9.386;2022-12-29T04:31:56;10.30;64.00
44851;DHT22;30583;48.714;9.386;2022-12-29T04:34:22;10.50;63.10
44851;DHT22;30583;48.714;9.386;2022-12-29T04:36:47;10.40;63.60
44851;DHT22;30583;48.714;9.386;2022-12-29T04:39:13;10.40;63.50
44851;DHT22;30583;48.714;9.386;2022-12-29T04:41:38;10.20;64.10
44851;DHT22;30583;48.714;9.386;2022-12-29T04:44:04;10.30;64.00
44851;DHT22;30583;48.714;9.386;2022-12-29T04:46:30;10.10;64.40
44851;DHT22;30583;48.714;9.386;2022-12-29T04:48:55;10.40;63.60
44851;DHT22;30583;48.714;9.386;2022-12-29T04:51:21;10.50;63.50
44851;DHT22;30583;48.714;9.386;2022-12-29T04:53:46;10.30;64.10
44851;DHT22;30583;48.714;9.386;2022-12-29T04:56:12;10.30;64.00
44851;DHT22;30583;48.714;9.386;2022-12-29T04:58:37;10.40;63.70
44851;DHT22;30583;48.714;9.386;2022-12-29T05:01:03;10.30;63.90
44851;DHT22;30583;48.714;9.386;2022-12-29T05:03:29;10.30;63.70
44851;DHT22;30583;48.714;9.386;2022-12-29T05:05:55;10.20;64.50
44851;DHT22;30583;48.714;9.386;2022-12-29T05:08:21;10.10;64.90
44851;DHT22;30583;48.714;9.386;2022-12-29T05:10:47;10.00;65.10
44851;DHT22;30583;48.714;9.386;2022-12-29T05:13:14;10.00;65.30
44851;DHT22;30583;48.714;9.386;2022-12-29T05:15:40;9.90;65.50
44851;DHT22;30583;48.714;9.386;2022-12-29T05:18:06;9.90;65.50
44851;DHT22;30583;48.714;9.386;2022-12-29T05:20:31;9.80;65.60
44851;DHT22;30583;48.714;9.386;2022-12-29T05:22:57;9.90;65.50
44851;DHT22;30583;48.714;9.386;2022-12-29T05:25:22;9.80;65.70
44851;DHT22;30583;48.714;9.386;2022-12-29T05:27:48;9.70;65.90
44851;DHT22;30583;48.714;9.386;2022-12-29T05:30:13;10.00;65.30
44851;DHT22;30583;48.714;9.386;2022-12-29T05:32:39;9.90;65.40
44851;DHT22;30583;48.714;9.386;2022-12-29T05:35:05;10.00;65.10
44851;DHT22;30583;48.714;9.386;2022-12-29T05:37:30;10.00;65.00
44851;DHT22;30583;48.714;9.386;2022-12-29T05:39:56;9.90;65.30
44851;DHT22;30583;48.714;9.386;2022-12-29T05:42:22;9.90;65.60
44851;DHT22;30583;48.714;9.386;2022-12-29T05:44:47;9.80;65.70
44851;DHT22;30583;48.714;9.386;2022-12-29T05:47:15;9.90;65.40
44851;DHT22;30583;48.714;9.386;2022-12-29T05:49:40;10.10;64.50
44851;DHT22;30583;48.714;9.386;2022-12-29T05:52:06;10.10;64.50
44851;DHT22;30583;48.714;9.386;2022-12-29T05:54:32;10.00;64.70
44851;DHT22;30583;48.714;9.386;2022-12-29T05:56:57;10.00;64.80
44851;DHT22;30583;48.714;9.386;2022-12-29T05:59:23;10.10;64.10
44851;DHT22;30583;48.714;9.386;2022-12-29T06:01:48;10.30;63.60
44851;DHT22;30583;48.714;9.386;2022-12-29T06:04:14;10.40;63.40
44851;DHT22;30583;48.714;9.386;2022-12-29T06:06:40;10.40;63.20
44851;DHT22;30583;48.714;9.386;2022-12-29T06:09:05;10.40;63.30
44851;DHT22;30583;48.714;9.386;2022-12-29T06:11:31;10.40;63.40
44851;DHT22;30583;48.714;9.386;2022-12-29T06:13:57;10.60;62.80
44851;DHT22;30583;48.714;9.386;2022-12-29T06:16:22;10.50;63.10
44851;DHT22;30583;48.714;9.386;2022-12-29T06:18:48;10.50;63.00
44851;DHT22;30583;48.714;9.386;2022-12-29T06:21:13;10.40;63.30
44851;DHT22;30583;48.714;9.386;2022-12-29T06:23:39;10.50;63.00
44851;DHT22;30583;48.714;9.386;2022-12-29T06:26:04;10.50;63.20
44851;DHT22;30583;48.714;9.386;2022-12-29T06:28:30;10.50;63.60
44851;DHT22;30583;48.714;9.386;2022-12-29T06:30:56;10.40;63.60
44851;DHT22;30583;48.714;9.386;2022-12-29T06:33:22;10.30;64.00
44851;DHT22;30583;48.714;9.386;2022-12-29T06:35:48;10.40;64.10
44851;DHT22;30583;48.714;9.386;2022-12-29T06:38:14;10.50;63.80
44851;DHT22;30583;48.714;9.386;2022-12-29T06:40:39;10.70;63.20
44851;DHT22;30583;48.714;9.386;2022-12-29T06:43:06;10.60;63.20
44851;DHT22;30583;48.714;9.386;2022-12-29T06:45:32;10.50;63.90
44851;DHT22;30583;48.714;9.386;2022-12-29T06:47:58;10.40;64.10
44851;DHT22;30583;48.714;9.386;2022-12-29T06:50:23;10.40;64.10
44851;DHT22;30583;48.714;9.386;2022-12-29T06:52:49;10.50;64.10
44851;DHT22;30583;48.714;9.386;2022-12-29T06:55:15;10.60;63.90
44851;DHT22;30583;48.714;9.386;2022-12-29T06:57:40;10.70;63.80
44851;DHT22;30583;48.714;9.386;2022-12-29T07:00:06;10.70;66.10
44851;DHT22;30583;48.714;9.386;2022-12-29T07:02:33;10.60;64.50
44851;DHT22;30583;48.714;9.386;2022-12-29T07:04:58;10.70;64.20
44851;DHT22;30583;48.714;9.386;2022-12-29T07:07:24;10.70;65.90
44851;DHT22;30583;48.714;9.386;2022-12-29T07:09:50;10.50;65.40
44851;DHT22;30583;48.714;9.386;2022-12-29T07:12:15;10.50;64.90
44851;DHT22;30583;48.714;9.386;2022-12-29T07:14:41;10.40;65.60
44851;DHT22;30583;48.714;9.386;2022-12-29T07:17:06;10.50;65.70
44851;DHT22;30583;48.714;9.386;2022-12-29T07:19:33;10.60;65.20
44851;DHT22;30583;48.714;9.386;2022-12-29T07:21:58;10.50;65.90
44851;DHT22;30583;48.714;9.386;2022-12-29T07:24:24;10.40;66.60
44851;DHT22;30583;48.714;9.386;2022-12-29T07:26:53;10.40;67.00
44851;DHT22;30583;48.714;9.386;2022-12-29T07:29:19;10.30;66.80
44851;DHT22;30583;48.714;9.386;2022-12-29T07:31:44;10.00;67.60
44851;DHT22;30583;48.714;9.386;2022-12-29T07:34:10;9.90;69.00
44851;DHT22;30583;48.714;9.386;2022-12-29T07:36:35;9.90;69.20
44851;DHT22;30583;48.714;9.386;2022-12-29T07:39:01;9.70;69.60
44851;DHT22;30583;48.714;9.386;2022-12-29T07:41:27;9.60;70.80
44851;DHT22;30583;48.714;9.386;2022-12-29T07:43:52;9.40;71.30
44851;DHT22;30583;48.714;9.386;2022-12-29T07:46:18;9.50;71.50
44851;DHT22;30583;48.714;9.386;2022-12-29T07:48:43;9.50;71.60
44851;DHT22;30583;48.714;9.386;2022-12-29T07:51:09;9.60;71.40
44851;DHT22;30583;48.714;9.386;2022-12-29T07:53:35;9.20;72.50
44851;DHT22;30583;48.714;9.386;2022-12-29T07:56:00;9.20;72.90
44851;DHT22;30583;48.714;9.386;2022-12-29T07:58:26;9.10;72.90
44851;DHT22;30583;48.714;9.386;2022-12-29T08:00:55;8.90;73.70
44851;DHT22;30583;48.714;9.386;2022-12-29T08:03:21;9.10;73.40
44851;DHT22;30583;48.714;9.386;2022-12-29T08:05:47;9.10;73.10
44851;DHT22;30583;48.714;9.386;2022-12-29T08:08:12;8.90;73.40
44851;DHT22;30583;48.714;9.386;2022-12-29T08:10:38;8.80;74.10
44851;DHT22;30583;48.714;9.386;2022-12-29T08:13:03;8.80;74.10
44851;DHT22;30583;48.714;9.386;2022-12-29T08:15:29;8.80;74.30
44851;DHT22;30583;48.714;9.386;2022-12-29T08:17:54;8.80;74.30
44851;DHT22;30583;48.714;9.386;2022-12-29T08:20:20;8.90;74.20
44851;DHT22;30583;48.714;9.386;2022-12-29T08:22:45;8.90;73.70
44851;DHT22;30583;48.714;9.386;2022-12-29T08:25:11;8.90;73.90
44851;DHT22;30583;48.714;9.386;2022-12-29T08:27:37;9.10;73.60
44851;DHT22;30583;48.714;9.386;2022-12-29T08:30:03;9.10;73.90
44851;DHT22;30583;48.714;9.386;2022-12-29T08:32:29;9.10;73.80
44851;DHT22;30583;48.714;9.386;2022-12-29T08:34:55;9.10;74.20
44851;DHT22;30583;48.714;9.386;2022-12-29T08:37:20;8.90;74.70
44851;DHT22;30583;48.714;9.386;2022-12-29T08:39:47;8.90;75.00
44851;DHT22;30583;48.714;9.386;2022-12-29T08:42:13;8.90;74.90
44851;DHT22;30583;48.714;9.386;2022-12-29T08:44:38;9.00;75.10
44851;DHT22;30583;48.714;9.386;2022-12-29T08:47:04;8.90;74.90
44851;DHT22;30583;48.714;9.386;2022-12-29T08:49:30;8.80;74.70
44851;DHT22;30583;48.714;9.386;2022-12-29T08:51:56;9.00;74.60
44851;DHT22;30583;48.714;9.386;2022-12-29T08:54:21;8.90;74.80
44851;DHT22;30583;48.714;9.386;2022-12-29T08:56:47;9.00;74.60
44851;DHT22;30583;48.714;9.386;2022-12-29T08:59:13;9.10;74.60
44851;DHT22;30583;48.714;9.386;2022-12-29T09:01:38;9.20;74.50
44851;DHT22;30583;48.714;9.386;2022-12-29T09:04:06;9.20;74.40
44851;DHT22;30583;48.714;9.386;2022-12-29T09:06:32;9.10;74.90
44851;DHT22;30583;48.714;9.386;2022-12-29T09:08:57;9.20;75.00
44851;DHT22;30583;48.714;9.386;2022-12-29T09:11:24;9.10;75.40
44851;DHT22;30583;48.714;9.386;2022-12-29T09:13:50;9.10;75.50
44851;DHT22;30583;48.714;9.386;2022-12-29T09:16:17;9.20;75.40
44851;DHT22;30583;48.714;9.386;2022-12-29T09:18:43;9.20;75.10
44851;DHT22;30583;48.714;9.386;2022-12-29T09:21:10;9.20;74.90
44851;DHT22;30583;48.714;9.386;2022-12-29T09:23:35;9.40;74.00
44851;DHT22;30583;48.714;9.386;2022-12-29T09:26:02;9.30;73.80
44851;DHT22;30583;48.714;9.386;2022-12-29T09:28:28;9.30;74.00
44851;DHT22;30583;48.714;9.386;2022-12-29T09:30:55;9.40;73.50
44851;DHT22;30583;48.714;9.386;2022-12-29T09:33:21;9.40;73.60
44851;DHT22;30583;48.714;9.386;2022-12-29T09:35:52;9.40;73.90
44851;DHT22;30583;48.714;9.386;2022-12-29T09:38:18;9.40;74.00
44851;DHT22;30583;48.714;9.386;2022-12-29T09:40:50;9.50;73.30
44851;DHT22;30583;48.714;9.386;2022-12-29T09:43:43;9.70;73.10
44851;DHT22;30583;48.714;9.386;2022-12-29T09:46:25;9.90;72.10
44851;DHT22;30583;48.714;9.386;2022-12-29T09:51:53;10.90;67.90
44851;DHT22;30583;48.714;9.386;2022-12-29T09:56:57;11.50;65.70
44851;DHT22;30583;48.714;9.386;2022-12-29T09:59:30;11.60;66.00
44851;DHT22;30583;48.714;9.386;2022-12-29T10:04:41;11.90;65.00
44851;DHT22;30583;48.714;9.386;2022-12-29T10:07:27;12.00;64.60
44851;DHT22;30583;48.714;9.386;2022-12-29T10:18:18;11.90;65.70
44851;DHT22;30583;48.714;9.386;2022-12-29T10:20:54;12.00;65.20
44851;DHT22;30583;48.714;9.386;2022-12-29T10:23:31;12.10;65.10
44851;DHT22;30583;48.714;9.386;2022-12-29T10:25:58;11.90;65.80
44851;DHT22;30583;48.714;9.386;2022-12-29T10:28:38;11.80;65.80
44851;DHT22;30583;48.714;9.386;2022-12-29T10:31:12;12.00;65.50
44851;DHT22;30583;48.714;9.386;2022-12-29T10:33:43;12.00;65.40
44851;DHT22;30583;48.714;9.386;2022-12-29T10:36:16;12.10;65.50
44851;DHT22;30583;48.714;9.386;2022-12-29T10:38:57;12.20;65.00
44851;DHT22;30583;48.714;9.386;2022-12-29T10:41:28;12.00;65.30
44851;DHT22;30583;48.714;9.386;2022-12-29T10:43:57;12.20;64.70
44851;DHT22;30583;48.714;9.386;2022-12-29T10:46:28;12.10;65.30
44851;DHT22;30583;48.714;9.386;2022-12-29T10:48:54;12.30;64.40
44851;DHT22;30583;48.714;9.386;2022-12-29T10:51:31;12.20;65.10
44851;DHT22;30583;48.714;9.386;2022-12-29T10:54:10;12.20;64.90
44851;DHT22;30583;48.714;9.386;2022-12-29T10:56:42;12.20;65.20
44851;DHT22;30583;48.714;9.386;2022-12-29T10:59:24;12.20;65.30
44851;DHT22;30583;48.714;9.386;2022-12-29T11:01:59;12.80;64.30
44851;DHT22;30583;48.714;9.386;2022-12-29T11:07:16;12.60;64.00
44851;DHT22;30583;48.714;9.386;2022-12-29T11:09:43;12.50;63.90
44851;DHT22;30583;48.714;9.386;2022-12-29T11:15:19;12.30;64.60
44851;DHT22;30583;48.714;9.386;2022-12-29T11:17:57;12.20;65.40
44851;DHT22;30583;48.714;9.386;2022-12-29T11:20:37;12.40;65.30
44851;DHT22;30583;48.714;9.386;2022-12-29T11:23:05;12.50;64.50
44851;DHT22;30583;48.714;9.386;2022-12-29T11:25:45;12.80;63.90
44851;DHT22;30583;48.714;9.386;2022-12-29T11:28:15;13.00;63.40
44851;DHT22;30583;48.714;9.386;2022-12-29T11:30:42;13.10;63.10
44851;DHT22;30583;48.714;9.386;2022-12-29T11:33:08;13.10;63.30
44851;DHT22;30583;48.714;9.386;2022-12-29T11:35:42;12.90;63.60
44851;DHT22;30583;48.714;9.386;2022-12-29T11:38:23;13.10;63.60
44851;DHT22;30583;48.714;9.386;2022-12-29T11:40:51;13.00;63.60
44851;DHT22;30583;48.714;9.386;2022-12-29T11:43:30;12.80;64.70
44851;DHT22;30583;48.714;9.386;2022-12-29T11:45:59;12.80;64.10
44851;DHT22;30583;48.714;9.386;2022-12-29T11:48:27;12.80;64.90
44851;DHT22;30583;48.714;9.386;2022-12-29T11:50:56;12.70;64.70
44851;DHT22;30583;48.714;9.386;2022-12-29T11:53:32;12.70;65.40
44851;DHT22;30583;48.714;9.386;2022-12-29T11:56:05;12.80;65.60
44851;DHT22;30583;48.714;9.386;2022-12-29T11:58:33;13.00;65.50
44851;DHT22;30583;48.714;9.386;2022-12-29T12:01:13;13.00;65.80
44851;DHT22;30583;48.714;9.386;2022-12-29T12:03:51;12.90;66.10
44851;DHT22;30583;48.714;9.386;2022-12-29T12:06:20;12.80;67.00
44851;DHT22;30583;48.714;9.386;2022-12-29T12:08:56;12.70;67.40
44851;DHT22;30583;48.714;9.386;2022-12-29T12:11:28;12.60;68.30
44851;DHT22;30583;48.714;9.386;2022-12-29T12:19:48;12.30;69.60
44851;DHT22;30583;48.714;9.386;2022-12-29T12:22:38;12.30;69.40
44851;DHT22;30583;48.714;9.386;2022-12-29T12:25:19;12.30;69.40
44851;DHT22;30583;48.714;9.386;2022-12-29T12:30:45;12.30;69.70
44851;DHT22;30583;48.714;9.386;2022-12-29T12:33:24;12.30;70.00
44851;DHT22;30583;48.714;9.386;2022-12-29T12:39:07;12.20;71.60
44851;DHT22;30583;48.714;9.386;2022-12-29T12:44:35;12.20;72.40
44851;DHT22;30583;48.714;9.386;2022-12-29T12:47:49;12.20;72.80
44851;DHT22;30583;48.714;9.386;2022-12-29T12:53:42;12.10;73.70
44851;DHT22;30583;48.714;9.386;2022-12-29T12:56:52;12.20;73.20
44851;DHT22;30583;48.714;9.386;2022-12-29T13:05:04;12.90;72.30
44851;DHT22;30583;48.714;9.386;2022-12-29T13:12:55;12.80;71.50
44851;DHT22;30583;48.714;9.386;2022-12-29T13:18:06;12.50;72.80
44851;DHT22;30583;48.714;9.386;2022-12-29T13:20:45;12.40;72.90
44851;DHT22;30583;48.714;9.386;2022-12-29T13:29:04;12.60;72.30
44851;DHT22;30583;48.714;9.386;2022-12-29T13:37:07;12.70;71.10
44851;DHT22;30583;48.714;9.386;2022-12-29T13:39:38;12.70;70.80
44851;DHT22;30583;48.714;9.386;2022-12-29T13:42:05;12.60;71.70
44851;DHT22;30583;48.714;9.386;2022-12-29T13:44:39;12.30;73.00
44851;DHT22;30583;48.714;9.386;2022-12-29T13:49:58;12.20;73.90
44851;DHT22;30583;48.714;9.386;2022-12-29T13:52:39;12.20;74.30
44851;DHT22;30583;48.714;9.386;2022-12-29T13:55:17;12.30;73.80
44851;DHT22;30583;48.714;9.386;2022-12-29T13:58:02;12.50;73.10
44851;DHT22;30583;48.714;9.386;2022-12-29T14:00:38;12.60;72.90
44851;DHT22;30583;48.714;9.386;2022-12-29T14:05:37;13.10;71.70
44851;DHT22;30583;48.714;9.386;2022-12-29T14:08:05;13.30;71.00
44851;DHT22;30583;48.714;9.386;2022-12-29T14:10:34;13.40;70.40
44851;DHT22;30583;48.714;9.386;2022-12-29T14:13:16;13.70;69.70
44851;DHT22;30583;48.714;9.386;2022-12-29T14:15:44;14.80;66.40
44851;DHT22;30583;48.714;9.386;2022-12-29T14:21:21;14.00;67.00
44851;DHT22;30583;48.714;9.386;2022-12-29T14:23:50;13.50;68.50
44851;DHT22;30583;48.714;9.386;2022-12-29T14:28:57;13.40;69.50
44851;DHT22;30583;48.714;9.386;2022-12-29T14:31:40;13.70;68.00
44851;DHT22;30583;48.714;9.386;2022-12-29T14:39:41;13.60;68.10
44851;DHT22;30583;48.714;9.386;2022-12-29T14:44:57;13.20;68.70
44851;DHT22;30583;48.714;9.386;2022-12-29T14:47:34;13.20;68.90
44851;DHT22;30583;48.714;9.386;2022-12-29T14:50:12;13.00;69.50
44851;DHT22;30583;48.714;9.386;2022-12-29T14:57:51;12.70;70.70
44851;DHT22;30583;48.714;9.386;2022-12-29T15:00:31;12.70;70.50
44851;DHT22;30583;48.714;9.386;2022-12-29T15:05:37;12.60;70.60
44851;DHT22;30583;48.714;9.386;2022-12-29T15:08:07;12.40;71.20
44851;DHT22;30583;48.714;9.386;2022-12-29T15:10:54;12.30;71.60
44851;DHT22;30583;48.714;9.386;2022-12-29T15:13:24;12.20;72.30
44851;DHT22;30583;48.714;9.386;2022-12-29T15:15:50;12.20;72.20
44851;DHT22;30583;48.714;9.386;2022-12-29T15:18:28;12.10;72.80
44851;DHT22;30583;48.714;9.386;2022-12-29T15:20:57;12.10;72.80
44851;DHT22;30583;48.714;9.386;2022-12-29T15:23:24;12.10;72.40
44851;DHT22;30583;48.714;9.386;2022-12-29T15:25:59;12.00;72.50
44851;DHT22;30583;48.714;9.386;2022-12-29T15:28:27;12.10;72.30
44851;DHT22;30583;48.714;9.386;2022-12-29T15:31:02;12.00;72.50
44851;DHT22;30583;48.714;9.386;2022-12-29T15:33:28;11.70;73.40
44851;DHT22;30583;48.714;9.386;2022-12-29T15:35:56;11.50;74.80
44851;DHT22;30583;48.714;9.386;2022-12-29T15:38:32;11.40;75.00
44851;DHT22;30583;48.714;9.386;2022-12-29T15:41:15;11.40;75.10
44851;DHT22;30583;48.714;9.386;2022-12-29T15:44:09;11.40;74.90
44851;DHT22;30583;48.714;9.386;2022-12-29T15:46:37;11.40;75.10
44851;DHT22;30583;48.714;9.386;2022-12-29T15:49:11;11.20;75.30
44851;DHT22;30583;48.714;9.386;2022-12-29T15:51:39;11.30;75.10
44851;DHT22;30583;48.714;9.386;2022-12-29T15:54:06;11.50;73.80
44851;DHT22;30583;48.714;9.386;2022-12-29T15:56:32;11.60;73.30
44851;DHT22;30583;48.714;9.386;2022-12-29T15:58:59;11.50;73.50
44851;DHT22;30583;48.714;9.386;2022-12-29T16:01:33;11.60;73.10
44851;DHT22;30583;48.714;9.386;2022-12-29T16:04:05;11.70;72.60
44851;DHT22;30583;48.714;9.386;2022-12-29T16:06:36;11.60;73.20
44851;DHT22;30583;48.714;9.386;2022-12-29T16:11:41;11.40;73.70
44851;DHT22;30583;48.714;9.386;2022-12-29T16:14:19;11.40;73.80
44851;DHT22;30583;48.714;9.386;2022-12-29T16:16:47;11.30;74.10
44851;DHT22;30583;48.714;9.386;2022-12-29T16:21:43;11.60;73.20
44851;DHT22;30583;48.714;9.386;2022-12-29T16:24:18;11.50;73.10
44851;DHT22;30583;48.714;9.386;2022-12-29T16:26:49;11.50;73.10
44851;DHT22;30583;48.714;9.386;2022-12-29T16:29:16;11.40;73.80
44851;DHT22;30583;48.714;9.386;2022-12-29T16:31:51;11.50;73.40
44851;DHT22;30583;48.714;9.386;2022-12-29T16:34:28;11.40;74.10
44851;DHT22;30583;48.714;9.386;2022-12-29T16:36:57;11.30;74.30
44851;DHT22;30583;48.714;9.386;2022-12-29T16:39:39;11.20;75.10
44851;DHT22;30583;48.714;9.386;2022-12-29T16:42:43;11.30;74.30
44851;DHT22;30583;48.714;9.386;2022-12-29T16:45:24;11.50;74.00
44851;DHT22;30583;48.714;9.386;2022-12-29T16:50:38;11.60;74.50
44851;DHT22;30583;48.714;9.386;2022-12-29T16:53:05;11.50;74.90
44851;DHT22;30583;48.714;9.386;2022-12-29T16:55:32;11.40;75.30
44851;DHT22;30583;48.714;9.386;2022-12-29T16:57:59;11.30;75.80
44851;DHT22;30583;48.714;9.386;2022-12-29T17:00:34;11.30;76.10
44851;DHT22;30583;48.714;9.386;2022-12-29T17:03:01;11.40;76.00
44851;DHT22;30583;48.714;9.386;2022-12-29T17:05:27;11.30;76.50
44851;DHT22;30583;48.714;9.386;2022-12-29T17:07:53;11.20;76.60
44851;DHT22;30583;48.714;9.386;2022-12-29T17:10:20;11.20;76.80
44851;DHT22;30583;48.714;9.386;2022-12-29T17:12:47;11.20;76.90
44851;DHT22;30583;48.714;9.386;2022-12-29T17:15:27;11.30;76.80
44851;DHT22;30583;48.714;9.386;2022-12-29T17:17:58;11.20;77.00
44851;DHT22;30583;48.714;9.386;2022-12-29T17:20:29;11.30;76.60
44851;DHT22;30583;48.714;9.386;2022-12-29T17:22:56;11.20;76.90
44851;DHT22;30583;48.714;9.386;2022-12-29T17:25:32;11.20;76.70
44851;DHT22;30583;48.714;9.386;2022-12-29T17:28:04;11.20;77.20
44851;DHT22;30583;48.714;9.386;2022-12-29T17:30:32;11.20;77.10
44851;DHT22;30583;48.714;9.386;2022-12-29T17:33:02;11.20;77.00
44851;DHT22;30583;48.714;9.386;2022-12-29T17:35:28;11.20;77.00
44851;DHT22;30583;48.714;9.386;2022-12-29T17:37:54;11.20;77.20
44851;DHT22;30583;48.714;9.386;2022-12-29T17:40:23;11.00;77.50
44851;DHT22;30583;48.714;9.386;2022-12-29T17:42:52;11.10;77.50
44851;DHT22;30583;48.714;9.386;2022-12-29T17:45:22;11.10;77.20
44851;DHT22;30583;48.714;9.386;2022-12-29T17:47:48;10.90;78.00
44851;DHT22;30583;48.714;9.386;2022-12-29T17:50:19;10.90;77.70
44851;DHT22;30583;48.714;9.386;2022-12-29T17:52:51;10.90;77.80